FAOR

Olifants River Bridge Landing Strip Airport

Olifants River Bridge, South Africa
METAR FAOR 212200Z 22007KT CAVOK 14/07 Q1024 NOSIG
Observed Flight Rules
Apr-21 @ 22:00 UTC (an hour ago) Visual Flight Rules
Wind Visibility Clouds
220° at 7 knots 10,000+ meters
  • Clear skies
Temperatures Readings
Current 14°C / 57°F
Dewpoint 7°C / 45°F
Humidity 63%
Altimeter 30.24" Hg
Pressure 1024 hPa
Elevation 1700
METAR FAOR 212200Z 22007KT CAVOK 14/07 Q1024 NOSIG
Observed Flight Rules
Apr-21 @ 22:00 UTC
(an hour ago)
VFR
Wind Visibility
220° at 7 knots 10,000+ meters
Clouds
  • Clear skies
Temperature Dewpoint
14°C / 57°F 7°C / 45°F
Humidity Altimeter Pressure
63% 30.24" Hg 1024 hPa